createdAt,value
2018-06-09T00:01:48.161Z,5.20
2018-06-09T00:04:17.000Z,4.80
2018-06-09T00:06:45.836Z,5.10
2018-06-09T00:09:14.714Z,5.43
2018-06-09T00:11:43.713Z,4.67
2018-06-09T00:14:12.607Z,4.90
2018-06-09T00:16:41.480Z,4.90
2018-06-09T00:19:10.352Z,4.93
2018-06-09T00:21:39.236Z,5.10
2018-06-09T00:24:08.116Z,5.07
2018-06-09T00:26:37.260Z,4.60
2018-06-09T00:29:06.135Z,5.20
2018-06-09T00:31:35.037Z,4.93
2018-06-09T00:34:03.876Z,4.73
2018-06-09T00:36:32.762Z,5.07
2018-06-09T00:39:01.653Z,4.77
2018-06-09T00:41:30.589Z,4.80
2018-06-09T00:43:59.490Z,5.00
2018-06-09T00:46:28.361Z,4.80
2018-06-09T00:48:57.262Z,5.27
2018-06-09T00:51:26.169Z,4.90
2018-06-09T00:53:55.064Z,4.87
2018-06-09T00:56:34.816Z,5.23
2018-06-09T00:59:03.781Z,5.37
2018-06-09T01:01:32.688Z,5.30
2018-06-09T01:04:01.576Z,5.13
2018-06-09T01:06:30.489Z,5.10
2018-06-09T01:08:59.365Z,4.43
2018-06-09T01:11:28.305Z,5.00
2018-06-09T01:13:57.195Z,5.43
2018-06-09T01:16:26.072Z,4.83
2018-06-09T01:18:54.996Z,4.97
2018-06-09T01:21:23.862Z,4.60
2018-06-09T01:23:52.760Z,5.23
2018-06-09T01:26:21.647Z,5.17
2018-06-09T01:28:50.492Z,5.50
2018-06-09T01:31:19.384Z,5.50
2018-06-09T01:33:48.292Z,5.40
2018-06-09T01:36:17.192Z,5.63
2018-06-09T01:38:46.051Z,5.57
2018-06-09T01:41:14.996Z,5.60
2018-06-09T01:43:43.900Z,5.67
2018-06-09T01:46:12.388Z,5.47
2018-06-09T01:48:40.857Z,5.10
2018-06-09T01:51:09.707Z,5.10
2018-06-09T01:53:38.692Z,5.20
2018-06-09T01:56:07.580Z,5.73
2018-06-09T01:58:36.465Z,5.33
2018-06-09T02:01:05.308Z,5.50
2018-06-09T02:03:33.785Z,5.47
2018-06-09T02:06:02.708Z,5.37
2018-06-09T02:08:31.545Z,5.30
2018-06-09T02:11:00.500Z,4.97
2018-06-09T02:13:29.740Z,5.53
2018-06-09T02:15:58.627Z,5.60
2018-06-09T02:18:27.520Z,5.40
2018-06-09T02:20:56.428Z,5.30
2018-06-09T02:23:25.328Z,5.00
2018-06-09T02:25:54.197Z,5.20
2018-06-09T02:28:23.087Z,4.60
2018-06-09T02:30:51.523Z,4.73
2018-06-09T02:33:20.432Z,5.03
2018-06-09T02:35:49.904Z,4.77
2018-06-09T02:38:18.753Z,4.80
2018-06-09T02:40:47.716Z,4.63
2018-06-09T02:43:16.585Z,5.03
2018-06-09T02:45:45.460Z,4.70
2018-06-09T02:48:14.306Z,4.50
2018-06-09T02:50:43.184Z,4.53
2018-06-09T02:53:12.052Z,4.43
2018-06-09T02:55:40.945Z,4.90
2018-06-09T02:58:10.148Z,4.73
2018-06-09T03:00:39.056Z,4.77
2018-06-09T03:03:07.912Z,5.40
2018-06-09T03:05:36.836Z,4.20
2018-06-09T03:08:05.704Z,4.30
2018-06-09T03:10:34.640Z,4.57
2018-06-09T03:13:03.541Z,4.27
2018-06-09T03:15:32.536Z,4.40
2018-06-09T03:18:01.444Z,4.27
2018-06-09T03:20:30.359Z,5.33
2018-06-09T03:22:59.214Z,4.83
2018-06-09T03:25:28.071Z,4.10
2018-06-09T03:27:56.983Z,4.70
2018-06-09T03:30:25.868Z,4.70
2018-06-09T03:32:54.755Z,4.43
2018-06-09T03:35:23.583Z,4.40
2018-06-09T03:37:52.503Z,4.60
2018-06-09T03:40:21.349Z,4.77
2018-06-09T03:42:50.324Z,4.27
2018-06-09T03:45:19.221Z,4.83
2018-06-09T03:47:48.194Z,3.90
2018-06-09T03:50:17.099Z,4.70
2018-06-09T03:52:46.004Z,4.50
2018-06-09T03:55:14.992Z,4.87
2018-06-09T03:57:43.949Z,5.10
2018-06-09T04:00:12.864Z,4.77
2018-06-09T04:02:41.764Z,5.17
2018-06-09T04:05:10.707Z,5.10
2018-06-09T04:07:39.589Z,5.03
2018-06-09T04:10:08.489Z,6.03
2018-06-09T04:12:37.348Z,4.93
2018-06-09T04:15:06.293Z,4.60
2018-06-09T04:17:35.136Z,4.57
2018-06-09T04:20:04.022Z,5.00
2018-06-09T04:22:32.913Z,4.80
2018-06-09T04:25:01.836Z,4.23
2018-06-09T04:27:30.711Z,4.80
2018-06-09T04:29:59.576Z,4.63
2018-06-09T04:32:28.441Z,4.37
2018-06-09T04:34:57.312Z,4.30
2018-06-09T04:37:26.260Z,5.07
2018-06-09T04:39:55.199Z,5.60
2018-06-09T04:42:24.091Z,5.27
2018-06-09T04:44:52.939Z,5.40
2018-06-09T04:47:21.846Z,5.07
2018-06-09T04:49:50.731Z,5.27
2018-06-09T04:52:19.649Z,5.20
2018-06-09T04:54:48.487Z,5.60
2018-06-09T04:57:17.461Z,4.80
2018-06-09T04:59:46.329Z,5.17
2018-06-09T05:02:14.784Z,4.63
2018-06-09T05:04:43.692Z,5.17
2018-06-09T05:07:12.688Z,4.47
2018-06-09T05:09:41.591Z,4.47
2018-06-09T05:12:10.508Z,5.27
2018-06-09T05:14:39.364Z,5.00
2018-06-09T05:17:08.240Z,5.10
2018-06-09T05:19:37.117Z,4.80
2018-06-09T05:22:06.029Z,4.97
2018-06-09T05:24:34.896Z,4.20
2018-06-09T05:27:03.418Z,4.07
2018-06-09T05:29:32.347Z,4.00
2018-06-09T05:32:01.300Z,3.93
2018-06-09T05:34:30.420Z,4.13
2018-06-09T05:36:59.428Z,3.70
2018-06-09T05:39:28.314Z,3.17
2018-06-09T05:41:57.236Z,3.87
2018-06-09T05:44:26.184Z,3.33
2018-06-09T05:46:55.091Z,3.30
2018-06-09T05:49:23.948Z,3.90
2018-06-09T05:51:52.836Z,3.93
2018-06-09T05:54:21.699Z,3.43
2018-06-09T05:56:50.581Z,3.80
2018-06-09T05:59:19.532Z,3.83
2018-06-09T06:01:48.364Z,4.00
2018-06-09T06:04:17.286Z,4.03
2018-06-09T06:06:46.164Z,4.00
2018-06-09T06:09:16.552Z,8.63
2018-06-09T06:11:45.061Z,7.13
2018-06-09T06:14:14.004Z,6.17
2018-06-09T06:16:42.869Z,4.47
2018-06-09T06:19:11.857Z,4.30
2018-06-09T06:21:40.813Z,3.70
2018-06-09T06:24:09.717Z,3.57
2018-06-09T06:26:39.066Z,10.50
2018-06-09T06:29:07.956Z,5.60
2018-06-09T06:31:36.880Z,4.47
2018-06-09T06:34:05.756Z,4.20
2018-06-09T06:36:34.705Z,4.23
2018-06-09T06:39:03.723Z,7.80
2018-06-09T06:41:32.643Z,5.23
2018-06-09T06:44:01.561Z,4.03
2018-06-09T06:46:30.440Z,3.50
2018-06-09T06:48:59.364Z,3.20
2018-06-09T06:51:28.295Z,3.30
2018-06-09T06:53:57.193Z,3.20
2018-06-09T06:56:25.648Z,3.37
2018-06-09T06:58:54.520Z,3.53
2018-06-09T07:01:23.416Z,3.50
2018-06-09T07:03:52.331Z,3.50
2018-06-09T07:06:21.196Z,2.93
2018-06-09T07:08:50.120Z,3.60
2018-06-09T07:11:19.005Z,3.30
2018-06-09T07:13:47.967Z,3.37
2018-06-09T07:16:16.815Z,3.57
2018-06-09T07:18:45.783Z,3.40
2018-06-09T07:21:14.645Z,4.07
2018-06-09T07:23:43.655Z,3.57
2018-06-09T07:26:12.535Z,3.90
2018-06-09T07:28:41.445Z,3.73
2018-06-09T07:31:10.381Z,3.80
2018-06-09T07:33:38.824Z,3.37
2018-06-09T07:36:07.724Z,3.67
2018-06-09T07:38:36.603Z,3.80
2018-06-09T07:41:05.491Z,5.10
2018-06-09T07:43:34.497Z,4.50
2018-06-09T07:46:03.376Z,3.40
2018-06-09T07:48:32.235Z,3.50
2018-06-09T07:51:01.188Z,3.83
2018-06-09T07:53:30.140Z,3.83
2018-06-09T07:55:58.994Z,3.70
2018-06-09T07:58:27.872Z,3.80
2018-06-09T08:00:56.739Z,3.70
2018-06-09T08:03:25.637Z,4.13
2018-06-09T08:05:54.624Z,3.57
2018-06-09T08:08:23.091Z,3.67
2018-06-09T08:10:51.977Z,3.43
2018-06-09T08:13:20.896Z,4.00
2018-06-09T08:15:49.848Z,4.30
2018-06-09T08:18:18.820Z,3.27
2018-06-09T08:20:47.728Z,3.30
2018-06-09T08:23:16.984Z,3.37
2018-06-09T08:25:45.940Z,3.30
2018-06-09T08:28:14.857Z,3.30
2018-06-09T08:30:43.792Z,3.47
2018-06-09T08:33:12.786Z,3.63
2018-06-09T08:35:41.712Z,3.37
2018-06-09T08:38:10.613Z,3.03
2018-06-09T08:40:39.543Z,3.10
2018-06-09T08:43:08.557Z,3.37
2018-06-09T08:45:38.216Z,3.07
2018-06-09T08:48:07.166Z,3.00
2018-06-09T08:50:36.086Z,3.53
2018-06-09T08:53:05.129Z,3.47
2018-06-09T08:55:34.084Z,3.40
2018-06-09T08:58:02.986Z,3.30
2018-06-09T09:00:31.925Z,3.17
2018-06-09T09:03:00.801Z,3.60
2018-06-09T09:05:29.721Z,3.03
2018-06-09T09:07:58.716Z,3.13
2018-06-09T09:10:27.592Z,3.00
2018-06-09T09:12:56.467Z,3.27
2018-06-09T09:15:25.432Z,3.20
2018-06-09T09:17:54.336Z,3.00
2018-06-09T09:20:23.289Z,2.50
2018-06-09T09:22:52.269Z,2.60
2018-06-09T09:25:21.273Z,3.27
2018-06-09T09:27:50.165Z,3.10
2018-06-09T09:30:19.116Z,3.43
2018-06-09T09:32:48.224Z,3.30
2018-06-09T09:35:17.136Z,2.77
2018-06-09T09:37:46.114Z,2.87
2018-06-09T09:40:14.559Z,2.63
2018-06-09T09:42:43.445Z,3.03
2018-06-09T09:45:12.347Z,2.83
2018-06-09T09:47:41.251Z,2.87
2018-06-09T09:50:10.132Z,3.00
2018-06-09T09:52:39.040Z,2.60
2018-06-09T09:55:07.997Z,3.03
2018-06-09T09:57:48.240Z,2.63
2018-06-09T10:00:23.148Z,2.70
2018-06-09T10:02:52.172Z,4.37
2018-06-09T10:05:21.070Z,3.20
2018-06-09T10:07:50.100Z,2.80
2018-06-09T10:10:29.611Z,2.70
2018-06-09T10:12:59.014Z,2.98
2018-06-09T10:15:27.504Z,2.72
2018-06-09T10:17:56.412Z,2.60
2018-06-09T10:20:38.594Z,3.37
2018-06-09T10:23:10.040Z,3.12
2018-06-09T10:25:40.020Z,3.12
2018-06-09T10:28:10.048Z,2.95
2018-06-09T10:30:43.306Z,2.90
2018-06-09T10:33:24.788Z,2.90
2018-06-09T10:35:53.643Z,2.87
2018-06-09T10:38:22.512Z,3.15
2018-06-09T10:40:51.016Z,2.55
2018-06-09T10:43:19.864Z,2.40
2018-06-09T10:45:48.731Z,2.45
2018-06-09T10:48:17.641Z,2.30
2018-06-09T10:50:46.596Z,3.02
2018-06-09T10:53:15.513Z,2.70
2018-06-09T10:55:45.418Z,2.87
2018-06-09T10:58:14.380Z,2.45
2018-06-09T11:00:43.304Z,2.75
2018-06-09T11:03:12.179Z,2.58
2018-06-09T11:05:41.037Z,2.55
2018-06-09T11:08:15.278Z,2.95
2018-06-09T11:10:57.016Z,2.70
2018-06-09T11:13:27.196Z,2.85
2018-06-09T11:18:55.700Z,2.50
2018-06-09T11:21:25.345Z,2.92
2018-06-09T11:26:28.160Z,2.87
2018-06-09T11:28:57.391Z,3.00
2018-06-09T11:31:26.327Z,2.77
2018-06-09T11:33:55.316Z,3.20
2018-06-09T11:36:24.168Z,3.33
2018-06-09T11:38:53.554Z,3.20
2018-06-09T11:41:22.505Z,3.55
2018-06-09T11:43:51.904Z,3.30
2018-06-09T11:46:20.771Z,3.25
2018-06-09T11:48:49.728Z,3.25
2018-06-09T11:51:18.563Z,2.95
2018-06-09T11:53:47.636Z,3.27
2018-06-09T11:56:16.544Z,3.10
2018-06-09T11:58:47.407Z,3.22
2018-06-09T12:01:16.321Z,2.95
2018-06-09T12:03:45.192Z,3.12
2018-06-09T12:06:14.156Z,3.30
2018-06-09T12:08:43.043Z,3.20
2018-06-09T12:11:12.041Z,3.17
2018-06-09T12:13:40.923Z,3.45
2018-06-09T12:16:09.805Z,3.27
2018-06-09T12:18:38.896Z,3.12
2018-06-09T12:21:07.877Z,3.60
2018-06-09T12:23:36.858Z,3.15
2018-06-09T12:26:05.748Z,3.40
2018-06-09T12:28:34.968Z,3.52
2018-06-09T12:31:03.463Z,3.40
2018-06-09T12:33:32.508Z,3.27
2018-06-09T12:36:01.447Z,3.40
2018-06-09T12:38:30.420Z,3.12
2018-06-09T12:40:59.273Z,3.25
2018-06-09T12:43:28.188Z,3.58
2018-06-09T12:45:57.328Z,3.58
2018-06-09T12:48:26.630Z,3.55
2018-06-09T12:50:56.969Z,3.72
2018-06-09T12:53:25.848Z,3.72
2018-06-09T12:55:54.732Z,4.03
2018-06-09T12:58:23.957Z,3.58
2018-06-09T13:00:54.090Z,3.70
2018-06-09T13:03:23.846Z,3.77
2018-06-09T13:05:52.828Z,3.55
2018-06-09T13:08:22.892Z,3.60
2018-06-09T13:10:51.807Z,3.08
2018-06-09T13:13:22.884Z,2.62
2018-06-09T13:15:54.494Z,2.77
2018-06-09T13:18:23.456Z,3.37
2018-06-09T13:20:52.465Z,3.40
2018-06-09T13:23:21.316Z,2.70
2018-06-09T13:25:50.164Z,2.85
2018-06-09T13:28:18.680Z,3.20
2018-06-09T13:30:47.517Z,2.60
2018-06-09T13:33:16.428Z,3.02
2018-06-09T13:35:44.844Z,3.40
2018-06-09T13:38:13.801Z,2.67
2018-06-09T13:40:42.660Z,2.98
2018-06-09T13:43:11.644Z,2.77
2018-06-09T13:45:40.501Z,2.80
2018-06-09T13:48:09.606Z,2.87
2018-06-09T13:50:38.521Z,3.30
2018-06-09T13:53:07.385Z,3.45
2018-06-09T13:55:36.270Z,2.98
2018-06-09T13:58:05.116Z,3.00
2018-06-09T14:00:34.052Z,3.27
2018-06-09T14:03:02.948Z,2.98
2018-06-09T14:05:31.916Z,3.72
2018-06-09T14:08:00.760Z,2.77
2018-06-09T14:10:29.684Z,3.10
2018-06-09T14:12:58.564Z,2.95
2018-06-09T14:15:27.484Z,3.10
2018-06-09T14:17:56.356Z,3.08
2018-06-09T14:20:26.256Z,3.20
2018-06-09T14:22:55.196Z,3.58
2018-06-09T14:25:24.084Z,2.72
2018-06-09T14:27:52.989Z,2.98
2018-06-09T14:30:22.255Z,3.10
2018-06-09T14:32:51.162Z,2.87
2018-06-09T14:35:20.072Z,3.00
2018-06-09T14:37:48.981Z,2.92
2018-06-09T14:40:17.876Z,3.05
2018-06-09T14:42:46.794Z,3.05
2018-06-09T14:45:15.685Z,3.33
2018-06-09T14:47:44.629Z,3.05
2018-06-09T14:50:13.543Z,2.92
2018-06-09T14:52:42.417Z,3.22
2018-06-09T14:55:12.042Z,2.80
2018-06-09T14:57:40.919Z,3.15
2018-06-09T15:00:09.852Z,3.47
2018-06-09T15:02:38.752Z,3.20
2018-06-09T15:05:07.723Z,3.22
2018-06-09T15:07:36.645Z,3.50
2018-06-09T15:10:05.572Z,3.40
2018-06-09T15:12:34.584Z,3.80
2018-06-09T15:15:03.465Z,3.20
2018-06-09T15:17:32.325Z,3.27
2018-06-09T15:20:01.238Z,2.80
2018-06-09T15:22:30.096Z,2.98
2018-06-09T15:24:59.126Z,3.55
2018-06-09T15:27:28.043Z,3.47
2018-06-09T15:29:56.980Z,3.60
2018-06-09T15:32:25.903Z,3.58
2018-06-09T15:34:54.781Z,3.25
2018-06-09T15:37:23.703Z,3.58
2018-06-09T15:39:52.865Z,3.52
2018-06-09T15:42:21.752Z,3.47
2018-06-09T15:44:50.611Z,3.33
2018-06-09T15:47:19.516Z,3.12
2018-06-09T15:49:48.435Z,3.40
2018-06-09T15:52:17.283Z,3.10
2018-06-09T15:54:46.297Z,3.40
2018-06-09T15:57:15.223Z,3.25
2018-06-09T15:59:44.168Z,3.22
2018-06-09T16:02:13.048Z,3.47
2018-06-09T16:04:41.949Z,3.45
2018-06-09T16:07:10.848Z,3.70
2018-06-09T16:09:39.786Z,3.40
2018-06-09T16:12:08.733Z,3.20
2018-06-09T16:14:37.618Z,3.52
2018-06-09T16:17:06.537Z,3.85
2018-06-09T16:19:35.480Z,3.23
2018-06-09T16:22:04.480Z,3.80
2018-06-09T16:24:33.679Z,3.50
2018-06-09T16:27:02.584Z,3.40
2018-06-09T16:29:31.607Z,3.50
2018-06-09T16:32:00.448Z,3.03
2018-06-09T16:34:29.409Z,3.40
2018-06-09T16:36:58.337Z,3.50
2018-06-09T16:39:27.431Z,3.30
2018-06-09T16:41:56.372Z,3.50
2018-06-09T16:44:24.854Z,3.60
2018-06-09T16:46:53.333Z,3.12
2018-06-09T16:49:22.284Z,4.00
2018-06-09T16:51:51.278Z,3.70
2018-06-09T16:54:20.177Z,3.70
2018-06-09T16:56:49.141Z,3.40
2018-06-09T16:59:18.075Z,3.40
2018-06-09T17:01:47.565Z,3.60
2018-06-09T17:04:16.545Z,3.77
2018-06-09T17:06:45.515Z,3.47
2018-06-09T17:09:14.494Z,3.60
2018-06-09T17:11:43.423Z,3.07
2018-06-09T17:14:12.481Z,3.47
2018-06-09T17:16:41.341Z,3.53
2018-06-09T17:19:10.198Z,4.42
2018-06-09T17:21:39.123Z,3.60
2018-06-09T17:24:08.042Z,4.03
2018-06-09T17:26:36.930Z,3.60
2018-06-09T17:29:05.891Z,4.00
2018-06-09T17:31:34.813Z,3.90
2018-06-09T17:34:03.708Z,3.97
2018-06-09T17:36:32.617Z,3.27
2018-06-09T17:39:01.521Z,3.70
2018-06-09T17:41:29.988Z,3.80
2018-06-09T17:43:58.971Z,3.60
2018-06-09T17:46:27.836Z,3.70
2018-06-09T17:48:56.758Z,3.70
2018-06-09T17:51:25.637Z,3.90
2018-06-09T17:53:54.541Z,3.50
2018-06-09T17:56:22.999Z,3.53
2018-06-09T17:58:51.908Z,3.70
2018-06-09T18:01:20.796Z,3.70
2018-06-09T18:03:49.692Z,3.33
2018-06-09T18:06:18.582Z,3.73
2018-06-09T18:08:47.510Z,4.07
2018-06-09T18:11:16.727Z,4.07
2018-06-09T18:13:45.708Z,4.00
2018-06-09T18:16:14.572Z,3.80
2018-06-09T18:18:43.457Z,3.90
2018-06-09T18:23:46.388Z,3.83
2018-06-09T18:26:15.231Z,3.77
2018-06-09T18:28:44.140Z,4.23
2018-06-09T18:31:13.040Z,4.57
2018-06-09T18:33:41.964Z,4.40
2018-06-09T18:36:10.912Z,4.10
2018-06-09T18:38:39.868Z,4.33
2018-06-09T18:41:08.787Z,4.30
2018-06-09T18:43:37.656Z,4.17
2018-06-09T18:46:06.131Z,4.20
2018-06-09T18:48:34.615Z,4.17
2018-06-09T18:51:03.088Z,4.23
2018-06-09T18:53:31.952Z,4.20
2018-06-09T18:56:00.888Z,4.20
2018-06-09T18:58:29.752Z,4.30
2018-06-09T19:00:58.628Z,4.40
2018-06-09T19:03:27.517Z,4.37
2018-06-09T19:05:56.729Z,4.43
2018-06-09T19:08:26.525Z,4.50
2018-06-09T19:10:55.074Z,4.20
2018-06-09T19:13:24.077Z,4.03
2018-06-09T19:15:53.030Z,3.93
2018-06-09T19:18:21.983Z,4.23
2018-06-09T19:20:50.828Z,3.83
2018-06-09T19:23:20.454Z,4.03
2018-06-09T19:25:49.321Z,4.27
2018-06-09T19:28:19.208Z,4.27
2018-06-09T19:30:48.388Z,4.10
2018-06-09T19:33:17.528Z,3.97
2018-06-09T19:35:46.612Z,4.47
2018-06-09T19:38:15.720Z,4.40
2018-06-09T19:40:44.657Z,3.67
2018-06-09T19:43:14.280Z,4.13
2018-06-09T19:45:43.144Z,4.00
2018-06-09T19:48:11.615Z,4.50
2018-06-09T19:50:40.548Z,4.17
2018-06-09T19:53:09.380Z,4.23
2018-06-09T19:55:38.302Z,4.13
2018-06-09T19:58:07.149Z,3.90
2018-06-09T20:00:36.087Z,3.83
2018-06-09T20:03:05.077Z,4.07
2018-06-09T20:05:34.108Z,3.50
2018-06-09T20:08:02.988Z,3.50
2018-06-09T20:10:31.991Z,3.50
2018-06-09T20:13:01.083Z,4.13
2018-06-09T20:15:30.208Z,4.33
2018-06-09T20:17:59.476Z,4.10
2018-06-09T20:20:28.363Z,3.83
2018-06-09T20:22:58.066Z,4.40
2018-06-09T20:25:26.963Z,4.30
2018-06-09T20:27:55.829Z,4.00
2018-06-09T20:30:24.715Z,4.07
2018-06-09T20:32:53.621Z,3.90
2018-06-09T20:35:22.557Z,3.60
2018-06-09T20:37:51.420Z,4.30
2018-06-09T20:40:20.329Z,4.27
2018-06-09T20:42:49.204Z,3.90
2018-06-09T20:45:18.126Z,3.60
2018-06-09T20:47:47.024Z,3.67
2018-06-09T20:50:15.893Z,3.47
2018-06-09T20:52:44.785Z,3.60
2018-06-09T20:55:13.252Z,3.83
2018-06-09T20:57:42.188Z,3.90
2018-06-09T21:00:11.051Z,3.80
2018-06-09T21:02:40.094Z,3.90
2018-06-09T21:05:09.133Z,3.73
2018-06-09T21:07:38.001Z,4.20
2018-06-09T21:10:06.902Z,4.17
2018-06-09T21:12:35.872Z,3.87
2018-06-09T21:15:04.809Z,4.10
2018-06-09T21:17:33.696Z,4.40
2018-06-09T21:20:03.305Z,4.50
2018-06-09T21:22:32.212Z,4.60
2018-06-09T21:25:01.088Z,4.73
2018-06-09T21:27:34.896Z,4.00
2018-06-09T21:30:10.893Z,3.97
2018-06-09T21:32:45.540Z,4.27
2018-06-09T21:35:24.665Z,4.57
2018-06-09T21:37:57.728Z,4.30
2018-06-09T21:40:30.724Z,4.10
2018-06-09T21:43:04.800Z,4.17
2018-06-09T21:45:38.920Z,3.90
2018-06-09T21:48:07.780Z,4.13
2018-06-09T21:53:29.560Z,4.33
2018-06-09T21:55:58.468Z,3.57
2018-06-09T21:58:27.309Z,3.93
2018-06-09T22:00:56.357Z,4.30
2018-06-09T22:03:25.192Z,4.03
2018-06-09T22:05:54.104Z,3.97
2018-06-09T22:08:23.020Z,4.13
2018-06-09T22:10:51.952Z,3.80
2018-06-09T22:13:20.944Z,3.80
2018-06-09T22:15:49.786Z,4.27
2018-06-09T22:18:18.247Z,3.40
2018-06-09T22:20:47.091Z,4.37
2018-06-09T22:23:15.996Z,4.00
2018-06-09T22:25:50.008Z,4.23
2018-06-09T22:28:18.915Z,4.20
2018-06-09T22:30:47.758Z,3.90
2018-06-09T22:33:16.668Z,3.60
2018-06-09T22:35:45.545Z,3.50
2018-06-09T22:38:14.772Z,4.00
2018-06-09T22:40:43.640Z,3.83
2018-06-09T22:43:13.040Z,3.90
2018-06-09T22:45:41.983Z,4.20
2018-06-09T22:48:10.817Z,4.10
2018-06-09T22:50:39.744Z,4.40
2018-06-09T22:53:08.624Z,4.10
2018-06-09T22:55:37.528Z,3.80
2018-06-09T22:58:06.447Z,4.33
2018-06-09T23:00:47.916Z,3.60
2018-06-09T23:03:17.325Z,3.50
2018-06-09T23:05:46.586Z,3.63
2018-06-09T23:08:15.483Z,3.83
2018-06-09T23:10:44.381Z,3.70
2018-06-09T23:13:12.844Z,4.37
2018-06-09T23:15:42.663Z,5.07
2018-06-09T23:18:11.568Z,4.17
2018-06-09T23:20:40.084Z,3.97
2018-06-09T23:23:09.275Z,4.50
2018-06-09T23:25:38.124Z,4.70
2018-06-09T23:28:06.568Z,3.60
2018-06-09T23:30:35.450Z,3.83
2018-06-09T23:33:04.301Z,4.20
2018-06-09T23:35:33.172Z,4.17
2018-06-09T23:38:01.654Z,5.13
2018-06-09T23:40:30.132Z,3.93
2018-06-09T23:42:58.579Z,4.00
2018-06-09T23:45:27.461Z,4.60
2018-06-09T23:47:56.320Z,4.00
2018-06-09T23:50:25.193Z,4.23
2018-06-09T23:52:54.199Z,4.03
2018-06-09T23:55:23.053Z,4.10
2018-06-09T23:57:51.939Z,4.17
